Time;durP1;ratioP1;P1;durP2;ratioP2;P2;SDS_P1;SDS_P2;PMS_P1;PMS_P2;Temp;Humidity;BMP_temperature;BMP_pressure;BME280_temperature;BME280_humidity;BME280_pressure;Samples;Min_cycle;Max_cycle;Signal;HPM_P1;HPM_P2
2021/05/09 00:01:25;;;;;;;13.80;8.13;;;26.20;93.80;;;;;;5124072;28;20032;-52
2021/05/09 00:03:52;;;;;;;15.02;6.28;;;26.20;93.80;;;;;;5123806;28;20024;-56
2021/05/09 00:06:19;;;;;;;12.90;4.32;;;26.20;93.80;;;;;;5123903;28;20031;-52
2021/05/09 00:08:46;;;;;;;12.93;3.63;;;26.20;93.90;;;;;;5105998;28;20050;-55
2021/05/09 00:11:12;;;;;;;8.85;3.60;;;26.20;93.80;;;;;;5123757;28;20027;-55
2021/05/09 00:13:39;;;;;;;8.98;4.07;;;26.20;93.90;;;;;;5124056;28;20023;-50
2021/05/09 00:16:07;;;;;;;7.55;4.30;;;26.10;93.80;;;;;;5123423;28;20016;-54
2021/05/09 00:18:33;;;;;;;9.65;4.13;;;26.10;93.70;;;;;;5104887;28;20036;-54
2021/05/09 00:21:00;;;;;;;7.80;4.10;;;26.10;93.80;;;;;;5122931;28;20045;-50
2021/05/09 00:23:27;;;;;;;9.00;4.40;;;26.10;93.80;;;;;;5123116;28;20292;-52
2021/05/09 00:25:54;;;;;;;12.80;4.43;;;26.10;93.80;;;;;;5123082;28;20335;-53
2021/05/09 00:28:21;;;;;;;10.88;3.90;;;26.10;93.80;;;;;;5123164;28;20024;-53
2021/05/09 00:30:47;;;;;;;7.45;3.42;;;26.10;93.90;;;;;;5122937;28;20035;-51
2021/05/09 00:33:14;;;;;;;9.75;3.85;;;26.10;93.90;;;;;;5123953;28;20284;-52
2021/05/09 00:35:41;;;;;;;10.52;3.15;;;26.10;94.00;;;;;;5126697;28;20027;-51
2021/05/09 00:38:08;;;;;;;6.45;3.35;;;26.10;94.00;;;;;;5107004;28;20024;-52
2021/05/09 00:40:35;;;;;;;9.85;3.90;;;26.10;94.20;;;;;;5106795;28;20023;-50
2021/05/09 00:43:02;;;;;;;11.95;3.95;;;26.10;94.20;;;;;;5106540;28;20077;-51
2021/05/09 00:45:28;;;;;;;8.73;3.10;;;26.10;94.10;;;;;;5106533;28;20040;-53
2021/05/09 00:47:55;;;;;;;5.60;2.40;;;26.10;94.10;;;;;;5106610;28;20031;-49
2021/05/09 00:50:22;;;;;;;7.65;1.77;;;26.00;94.10;;;;;;5106299;28;20020;-56
2021/05/09 00:52:49;;;;;;;7.05;2.40;;;26.10;94.10;;;;;;5105185;28;20244;-56
2021/05/09 00:55:16;;;;;;;8.60;2.30;;;26.10;94.10;;;;;;5105508;28;20024;-56
2021/05/09 00:57:48;;;;;;;6.38;2.17;;;26.10;94.00;;;;;;5105996;28;20020;-56
2021/05/09 01:00:15;;;;;;;6.47;2.40;;;26.10;94.00;;;;;;5107145;28;20028;-52
2021/05/09 01:02:43;;;;;;;11.25;2.85;;;26.10;93.90;;;;;;5106912;28;20048;-56
2021/05/09 01:05:12;;;;;;;5.50;2.45;;;26.10;93.90;;;;;;5106801;28;20020;-57
2021/05/09 01:07:39;;;;;;;8.90;2.80;;;26.10;93.70;;;;;;5106434;28;20367;-53
2021/05/09 01:10:08;;;;;;;6.93;2.00;;;26.20;93.80;;;;;;5106594;28;20058;-51
2021/05/09 01:12:35;;;;;;;5.88;2.42;;;26.20;93.80;;;;;;5106300;28;20024;-55
2021/05/09 01:15:03;;;;;;;5.90;2.22;;;26.20;93.80;;;;;;5106774;28;20019;-55
2021/05/09 01:17:30;;;;;;;8.15;1.83;;;26.20;93.80;;;;;;5106231;28;20024;-57
2021/05/09 01:20:16;;;;;;;7.78;2.50;;;26.20;93.80;;;;;;5106765;28;20056;-51
2021/05/09 01:22:43;;;;;;;8.13;2.20;;;26.20;93.80;;;;;;5093118;28;20042;-51
2021/05/09 01:25:11;;;;;;;8.30;2.90;;;26.20;93.80;;;;;;5106979;28;20023;-54
2021/05/09 01:27:39;;;;;;;8.10;2.05;;;26.20;93.80;;;;;;5106693;28;20031;-54
2021/05/09 01:30:08;;;;;;;9.25;2.00;;;26.20;93.90;;;;;;5106441;28;20042;-52
2021/05/09 01:32:35;;;;;;;7.32;2.08;;;26.20;93.80;;;;;;5106651;28;20045;-57
2021/05/09 01:35:02;;;;;;;6.32;1.60;;;26.20;93.80;;;;;;5106328;28;20043;-56
2021/05/09 01:37:28;;;;;;;7.10;2.03;;;26.20;93.80;;;;;;5106662;28;20222;-54
2021/05/09 01:39:55;;;;;;;8.90;2.22;;;26.20;93.90;;;;;;5106329;28;20028;-58
2021/05/09 01:42:21;;;;;;;11.15;4.20;;;26.20;93.80;;;;;;5106237;28;20024;-54
2021/05/09 01:44:51;;;;;;;11.20;6.68;;;26.20;93.70;;;;;;5106870;28;20050;-53
2021/05/09 01:47:19;;;;;;;16.30;10.05;;;26.20;93.70;;;;;;5088292;28;20057;-53
2021/05/09 01:49:45;;;;;;;24.27;15.70;;;26.10;93.70;;;;;;5106504;28;20024;-53
2021/05/09 01:52:14;;;;;;;30.55;22.85;;;26.20;93.90;;;;;;5105972;28;20027;-54
2021/05/09 01:54:43;;;;;;;37.35;22.80;;;26.20;93.90;;;;;;5106494;28;20024;-51
2021/05/09 01:57:10;;;;;;;30.05;18.67;;;26.20;93.90;;;;;;5106063;28;20028;-52
2021/05/09 01:59:36;;;;;;;21.98;14.55;;;26.20;93.90;;;;;;5106346;28;20047;-53
2021/05/09 02:02:03;;;;;;;21.08;9.32;;;26.20;94.00;;;;;;5105937;28;20034;-56
2021/05/09 02:04:30;;;;;;;12.88;6.93;;;26.20;93.90;;;;;;5106717;28;20193;-54
2021/05/09 02:06:57;;;;;;;15.48;7.40;;;26.20;93.90;;;;;;5105615;28;20024;-54
2021/05/09 02:09:24;;;;;;;16.08;8.07;;;26.20;93.90;;;;;;5088044;28;20331;-52
2021/05/09 02:11:50;;;;;;;21.48;6.97;;;26.20;93.90;;;;;;5106119;28;20095;-53
2021/05/09 02:14:17;;;;;;;18.17;6.22;;;26.20;93.90;;;;;;5106500;28;20027;-48
2021/05/09 02:16:43;;;;;;;11.52;5.00;;;26.20;93.90;;;;;;5105705;28;20023;-54
2021/05/09 02:19:10;;;;;;;11.63;3.90;;;26.20;94.00;;;;;;5105966;28;20049;-51
2021/05/09 02:21:37;;;;;;;11.10;3.40;;;26.20;94.20;;;;;;5105153;28;20028;-54
2021/05/09 02:24:04;;;;;;;13.30;3.65;;;26.20;94.00;;;;;;5105879;28;20061;-53
2021/05/09 02:26:31;;;;;;;12.52;2.83;;;26.10;94.00;;;;;;5105784;28;20106;-53
2021/05/09 02:28:57;;;;;;;12.27;3.10;;;26.20;94.00;;;;;;5087013;28;20041;-54
2021/05/09 02:31:24;;;;;;;7.97;2.00;;;26.20;94.00;;;;;;5105618;28;20050;-55
2021/05/09 02:33:50;;;;;;;6.90;2.00;;;26.20;94.00;;;;;;5105851;28;20061;-53
2021/05/09 02:36:17;;;;;;;6.25;1.42;;;26.20;94.00;;;;;;5105503;28;20030;-52
2021/05/09 02:38:44;;;;;;;5.45;1.33;;;26.20;94.00;;;;;;5104921;28;20103;-55
2021/05/09 02:41:10;;;;;;;12.20;1.30;;;26.10;94.00;;;;;;5104786;28;20204;-47
2021/05/09 02:43:37;;;;;;;11.23;1.52;;;26.10;94.00;;;;;;5104945;28;20027;-49
2021/05/09 02:46:04;;;;;;;10.60;1.00;;;26.00;94.10;;;;;;5104915;28;20374;-47
2021/05/09 02:48:31;;;;;;;6.90;0.88;;;26.00;94.20;;;;;;5104917;28;20046;-48
2021/05/09 02:50:57;;;;;;;11.32;1.23;;;25.90;94.20;;;;;;5104737;28;20031;-54
2021/05/09 02:53:24;;;;;;;9.00;1.10;;;26.00;94.30;;;;;;5104821;28;20095;-54
2021/05/09 02:55:51;;;;;;;10.25;1.40;;;26.00;94.30;;;;;;5086392;28;20023;-53
2021/05/09 02:58:17;;;;;;;11.02;1.98;;;26.00;94.50;;;;;;5104837;28;20087;-55
2021/05/09 03:00:50;;;;;;;16.90;1.52;;;26.00;94.50;;;;;;5104327;28;20027;-55
2021/05/09 03:03:17;;;;;;;10.90;1.20;;;26.00;94.70;;;;;;5103677;28;20319;-57
2021/05/09 03:05:43;;;;;;;8.20;0.80;;;25.90;94.70;;;;;;5104227;28;20024;-48
2021/05/09 03:08:16;;;;;;;9.70;0.88;;;26.00;94.80;;;;;;5104019;28;20358;-50
2021/05/09 03:10:42;;;;;;;11.00;0.82;;;25.90;94.40;;;;;;5104372;28;20020;-48
2021/05/09 03:13:09;;;;;;;8.23;0.98;;;25.90;94.50;;;;;;5103900;28;20020;-48
2021/05/09 03:15:35;;;;;;;10.77;1.20;;;25.90;94.50;;;;;;5104253;28;20022;-52
2021/05/09 03:18:02;;;;;;;9.95;0.80;;;25.90;94.50;;;;;;5104367;28;20063;-50
2021/05/09 03:20:29;;;;;;;14.15;1.15;;;25.90;94.40;;;;;;5103592;28;20044;-54
2021/05/09 03:22:56;;;;;;;12.13;0.93;;;25.80;94.30;;;;;;5103670;28;20024;-54
2021/05/09 03:25:23;;;;;;;14.63;0.95;;;25.90;94.30;;;;;;5103780;28;20384;-56
2021/05/09 03:27:49;;;;;;;3.85;0.45;;;25.90;94.20;;;;;;5103430;28;20142;-59
2021/05/09 03:30:16;;;;;;;5.35;0.70;;;25.90;94.10;;;;;;5103412;28;20016;-53
2021/05/09 03:32:43;;;;;;;7.63;0.95;;;25.90;94.10;;;;;;5104397;28;20287;-54
2021/05/09 03:35:11;;;;;;;6.18;0.60;;;26.00;94.10;;;;;;5103893;28;20025;-60
2021/05/09 03:37:37;;;;;;;4.82;0.70;;;25.90;94.10;;;;;;5103732;28;20024;-52
2021/05/09 03:40:06;;;;;;;7.38;0.82;;;26.00;94.00;;;;;;5104029;28;20020;-54
2021/05/09 03:42:33;;;;;;;11.63;1.42;;;25.90;94.00;;;;;;5103865;28;20020;-56
2021/05/09 03:45:00;;;;;;;11.15;5.15;;;25.90;93.80;;;;;;5104510;28;20243;-52
2021/05/09 03:47:27;;;;;;;16.20;7.78;;;26.00;93.80;;;;;;5104016;28;20058;-55
2021/05/09 03:49:55;;;;;;;16.30;9.30;;;26.00;93.90;;;;;;5104601;28;20012;-52
2021/05/09 03:52:22;;;;;;;18.30;9.65;;;25.90;93.80;;;;;;5103741;28;20038;-55
2021/05/09 03:54:49;;;;;;;16.30;8.13;;;25.90;93.80;;;;;;5104542;28;20077;-51
2021/05/09 03:57:16;;;;;;;12.25;7.82;;;26.00;93.80;;;;;;5103593;28;20189;-49
2021/05/09 03:59:43;;;;;;;9.98;4.97;;;26.00;93.70;;;;;;5104398;28;20039;-56
2021/05/09 04:02:09;;;;;;;12.18;4.35;;;25.90;93.50;;;;;;5104100;28;20016;-55
2021/05/09 04:04:36;;;;;;;11.70;6.10;;;26.00;93.60;;;;;;5105023;28;20028;-53
2021/05/09 04:07:03;;;;;;;17.80;6.82;;;25.90;93.60;;;;;;5104175;28;20040;-53
2021/05/09 04:09:30;;;;;;;10.20;4.03;;;26.00;93.70;;;;;;5107990;28;20043;-53
2021/05/09 04:11:57;;;;;;;6.88;3.15;;;26.00;93.60;;;;;;5108269;28;20011;-53
2021/05/09 04:14:24;;;;;;;8.05;3.50;;;25.90;93.60;;;;;;5107998;28;20087;-52
2021/05/09 04:16:51;;;;;;;10.98;3.25;;;26.00;93.60;;;;;;5107592;28;20036;-61
2021/05/09 04:19:17;;;;;;;9.27;2.88;;;25.90;93.60;;;;;;5108766;28;20095;-56
2021/05/09 04:21:44;;;;;;;14.85;2.47;;;26.00;93.70;;;;;;5107622;28;20020;-52
2021/05/09 04:24:11;;;;;;;8.20;2.28;;;25.90;93.60;;;;;;5108226;28;20020;-55
2021/05/09 04:26:38;;;;;;;4.72;1.73;;;25.90;93.50;;;;;;5107944;28;20026;-60
2021/05/09 04:29:04;;;;;;;6.07;1.52;;;26.00;93.60;;;;;;5108529;28;20020;-51
2021/05/09 04:31:31;;;;;;;7.38;1.45;;;25.90;93.70;;;;;;5108013;28;20024;-51
2021/05/09 04:33:58;;;;;;;6.05;0.90;;;25.90;93.70;;;;;;5107497;28;20100;-52
2021/05/09 04:36:24;;;;;;;5.82;1.50;;;25.90;93.70;;;;;;5107271;28;20050;-55
2021/05/09 04:38:51;;;;;;;3.75;1.10;;;25.90;93.80;;;;;;5107921;28;20024;-56
2021/05/09 04:41:18;;;;;;;5.97;0.68;;;25.90;93.80;;;;;;5107882;28;20084;-49
2021/05/09 04:43:44;;;;;;;5.47;0.88;;;25.90;93.80;;;;;;5108129;28;20286;-55
2021/05/09 04:46:11;;;;;;;8.07;1.00;;;25.90;93.90;;;;;;5107710;28;20039;-53
2021/05/09 04:48:37;;;;;;;7.43;0.60;;;25.90;93.90;;;;;;5107741;28;20047;-60
2021/05/09 04:51:04;;;;;;;5.88;0.80;;;26.00;94.00;;;;;;5106892;28;20279;-60
2021/05/09 04:53:38;;;;;;;6.32;0.65;;;26.00;94.10;;;;;;5107227;28;20083;-59
2021/05/09 04:56:07;;;;;;;8.73;0.80;;;26.00;94.20;;;;;;5107028;28;20020;-56
2021/05/09 04:58:37;;;;;;;5.68;0.77;;;25.90;94.20;;;;;;5106979;28;20024;-55
2021/05/09 05:01:05;;;;;;;7.60;1.02;;;26.00;94.30;;;;;;5107674;28;20024;-54
2021/05/09 05:03:33;;;;;;;5.28;0.82;;;26.00;94.30;;;;;;5107300;28;20088;-59
2021/05/09 05:06:00;;;;;;;4.28;0.60;;;25.90;94.30;;;;;;5107092;28;20012;-59
2021/05/09 05:08:32;;;;;;;9.95;0.93;;;25.90;94.40;;;;;;5106841;28;20052;-59
2021/05/09 05:11:05;;;;;;;4.18;0.70;;;25.90;94.40;;;;;;5107402;28;20016;-54
2021/05/09 05:13:33;;;;;;;5.47;0.80;;;25.90;94.40;;;;;;5106533;28;20087;-55
2021/05/09 05:16:02;;;;;;;7.07;1.35;;;25.90;94.50;;;;;;5106848;28;20019;-52
2021/05/09 05:18:29;;;;;;;9.48;1.00;;;25.90;94.50;;;;;;5106508;28;20024;-52
2021/05/09 05:21:01;;;;;;;7.65;1.08;;;25.90;94.60;;;;;;5106884;28;20316;-52
2021/05/09 05:23:32;;;;;;;9.73;1.00;;;25.90;94.60;;;;;;5107092;28;20348;-54
2021/05/09 05:25:59;;;;;;;3.75;0.80;;;25.90;94.60;;;;;;5107128;28;20344;-56
2021/05/09 05:28:25;;;;;;;4.45;0.95;;;25.90;94.60;;;;;;5107272;28;20418;-59
2021/05/09 05:30:52;;;;;;;7.40;0.80;;;25.90;94.60;;;;;;5106580;28;20019;-58
2021/05/09 05:33:32;;;;;;;7.57;0.80;;;25.90;94.70;;;;;;5106515;28;20031;-56
2021/05/09 05:36:01;;;;;;;4.90;0.73;;;25.90;94.60;;;;;;5106499;28;20016;-52
2021/05/09 05:38:28;;;;;;;10.95;0.93;;;25.90;94.60;;;;;;5106559;28;20024;-52
2021/05/09 05:40:57;;;;;;;9.25;1.15;;;25.90;94.60;;;;;;5106389;28;20016;-54
2021/05/09 05:43:28;;;;;;;8.55;1.10;;;25.90;94.60;;;;;;5106257;28;20031;-56
2021/05/09 05:45:56;;;;;;;6.13;0.80;;;25.90;94.60;;;;;;5106046;28;20240;-53
2021/05/09 05:48:24;;;;;;;7.30;1.35;;;25.90;94.60;;;;;;5106559;28;20239;-56
2021/05/09 05:50:51;;;;;;;6.82;0.80;;;25.90;94.60;;;;;;5106344;28;20020;-55
2021/05/09 05:53:19;;;;;;;8.30;0.85;;;25.90;94.50;;;;;;5106359;28;20024;-55
2021/05/09 05:55:47;;;;;;;4.40;1.10;;;25.90;94.50;;;;;;5106009;28;20214;-52
2021/05/09 05:58:15;;;;;;;7.00;1.20;;;25.90;94.50;;;;;;5106023;28;20027;-57
2021/05/09 06:00:41;;;;;;;7.25;1.10;;;25.80;94.50;;;;;;5106006;28;20028;-61
2021/05/09 06:03:08;;;;;;;9.52;1.00;;;25.80;94.50;;;;;;5106145;28;20079;-57
2021/05/09 06:05:35;;;;;;;9.80;1.38;;;25.80;94.50;;;;;;5105918;28;20020;-58
2021/05/09 06:08:02;;;;;;;8.70;1.17;;;25.80;94.40;;;;;;5106189;28;20056;-50
2021/05/09 06:10:29;;;;;;;7.72;1.20;;;25.80;94.50;;;;;;5106252;28;20012;-52
2021/05/09 06:12:57;;;;;;;5.70;0.90;;;25.80;94.40;;;;;;5106310;28;20032;-52
2021/05/09 06:15:24;;;;;;;9.57;0.90;;;25.80;94.40;;;;;;5106177;28;20020;-55
2021/05/09 06:17:51;;;;;;;11.18;0.95;;;25.80;94.40;;;;;;5105389;28;20028;-57
2021/05/09 06:20:18;;;;;;;4.90;0.93;;;25.80;94.70;;;;;;5105846;28;20044;-53
2021/05/09 06:22:44;;;;;;;9.32;0.98;;;25.80;94.50;;;;;;5105365;28;20047;-54
2021/05/09 06:25:11;;;;;;;10.73;1.13;;;25.80;94.50;;;;;;5105972;28;20011;-52
2021/05/09 06:27:38;;;;;;;10.05;1.10;;;25.80;94.50;;;;;;5105873;28;20134;-56
2021/05/09 06:30:06;;;;;;;6.63;1.00;;;25.80;94.50;;;;;;5105442;28;20012;-56
2021/05/09 06:32:33;;;;;;;14.82;1.08;;;25.80;94.50;;;;;;5104912;28;20077;-52
2021/05/09 06:34:59;;;;;;;7.72;1.15;;;25.80;94.50;;;;;;5105843;28;20062;-54
2021/05/09 06:37:27;;;;;;;6.95;0.82;;;25.80;94.40;;;;;;5105522;28;20029;-55
2021/05/09 06:39:53;;;;;;;7.75;0.98;;;25.80;94.50;;;;;;5105293;28;20191;-56
2021/05/09 06:42:21;;;;;;;7.93;0.90;;;25.80;94.50;;;;;;5105679;28;20024;-56
2021/05/09 06:44:56;;;;;;;7.80;1.15;;;25.80;94.50;;;;;;5105213;28;20372;-59
2021/05/09 06:47:23;;;;;;;5.47;0.70;;;25.80;94.50;;;;;;5105462;28;20032;-55
2021/05/09 06:49:50;;;;;;;10.00;1.13;;;25.80;94.50;;;;;;5105767;28;20248;-55
2021/05/09 06:52:16;;;;;;;9.75;0.90;;;25.80;94.50;;;;;;5105354;28;20020;-57
2021/05/09 06:54:43;;;;;;;9.48;1.30;;;25.80;94.40;;;;;;5105851;28;20027;-54
2021/05/09 06:57:10;;;;;;;13.43;0.80;;;25.80;94.50;;;;;;5105398;28;20024;-53
2021/05/09 06:59:36;;;;;;;7.50;1.20;;;25.80;94.50;;;;;;5105713;28;20046;-58
2021/05/09 07:02:03;;;;;;;5.97;0.75;;;25.80;94.50;;;;;;5105381;28;20083;-55
2021/05/09 07:04:29;;;;;;;6.70;0.90;;;25.80;94.50;;;;;;5105654;28;20020;-51
2021/05/09 07:06:56;;;;;;;13.68;1.13;;;25.70;94.50;;;;;;5105200;28;20055;-56
2021/05/09 07:09:23;;;;;;;9.80;0.73;;;25.70;94.50;;;;;;5105052;28;20045;-55
2021/05/09 07:11:49;;;;;;;8.02;0.93;;;25.70;94.50;;;;;;5105805;28;20271;-57
2021/05/09 07:14:16;;;;;;;7.15;0.95;;;25.70;94.50;;;;;;5105522;28;20031;-52
2021/05/09 07:16:43;;;;;;;9.35;1.15;;;25.70;94.50;;;;;;5104807;28;20051;-58
2021/05/09 07:19:10;;;;;;;6.72;0.80;;;25.70;94.50;;;;;;5105285;28;20027;-55
2021/05/09 07:21:42;;;;;;;9.00;0.68;;;25.70;94.50;;;;;;5104448;28;20114;-51
2021/05/09 07:24:09;;;;;;;8.35;1.02;;;25.70;94.50;;;;;;5105486;28;20020;-52
2021/05/09 07:26:36;;;;;;;7.63;0.60;;;25.70;94.50;;;;;;5104642;28;20047;-55
2021/05/09 07:29:03;;;;;;;14.15;1.25;;;25.70;94.40;;;;;;5105172;28;20023;-54
2021/05/09 07:31:32;;;;;;;5.10;0.82;;;25.70;94.50;;;;;;5104803;28;20083;-54
2021/05/09 07:33:58;;;;;;;8.07;0.70;;;25.70;94.50;;;;;;5086879;28;20243;-51
2021/05/09 07:36:25;;;;;;;10.48;0.70;;;25.70;94.50;;;;;;5104360;28;20224;-52
2021/05/09 07:38:52;;;;;;;9.57;0.73;;;25.70;94.50;;;;;;5104467;28;20069;-52
2021/05/09 07:41:18;;;;;;;7.78;1.38;;;25.70;94.60;;;;;;5104112;28;20028;-55
2021/05/09 07:43:46;;;;;;;7.82;0.90;;;25.70;94.60;;;;;;5104457;28;20042;-55
2021/05/09 07:46:13;;;;;;;12.25;0.80;;;25.70;94.60;;;;;;5104099;28;20252;-51
2021/05/09 07:48:39;;;;;;;6.80;1.15;;;25.70;94.70;;;;;;5104489;28;20016;-52
2021/05/09 07:51:06;;;;;;;6.43;0.90;;;25.70;94.60;;;;;;5104511;28;20031;-54
2021/05/09 07:53:33;;;;;;;9.60;1.13;;;25.70;94.70;;;;;;5104518;28;20345;-51
2021/05/09 07:56:00;;;;;;;9.60;1.17;;;25.70;94.70;;;;;;5104542;28;20028;-54
2021/05/09 07:58:26;;;;;;;9.15;0.70;;;25.70;94.70;;;;;;5104451;28;20025;-51
2021/05/09 08:00:53;;;;;;;16.63;1.10;;;25.70;94.80;;;;;;5104237;28;20028;-55
2021/05/09 08:03:20;;;;;;;6.53;1.08;;;25.70;94.80;;;;;;5104064;28;20087;-55
2021/05/09 08:05:47;;;;;;;9.98;2.10;;;25.70;94.90;;;;;;5103896;28;20091;-59
2021/05/09 08:08:14;;;;;;;13.75;3.05;;;25.70;94.80;;;;;;5104206;28;20377;-58
2021/05/09 08:10:42;;;;;;;13.02;3.10;;;25.70;94.80;;;;;;5104379;28;20019;-53
2021/05/09 08:13:11;;;;;;;9.35;2.85;;;25.70;94.80;;;;;;5104071;28;20262;-58
2021/05/09 08:15:39;;;;;;;12.35;2.30;;;25.70;94.80;;;;;;5104027;28;20024;-53
2021/05/09 08:18:06;;;;;;;11.90;2.30;;;25.70;94.80;;;;;;5103997;28;20024;-56
2021/05/09 08:20:33;;;;;;;8.73;1.52;;;25.70;94.80;;;;;;5103838;28;20203;-51
2021/05/09 08:23:00;;;;;;;9.40;1.63;;;25.70;94.80;;;;;;5103730;28;20200;-54
2021/05/09 08:25:27;;;;;;;5.80;1.80;;;25.70;94.80;;;;;;5103924;28;20030;-51
2021/05/09 08:27:53;;;;;;;15.13;1.70;;;25.60;94.90;;;;;;5104289;28;20050;-51
2021/05/09 08:30:22;;;;;;;8.23;1.02;;;25.60;94.90;;;;;;5104337;28;20020;-52
2021/05/09 08:32:50;;;;;;;7.90;1.30;;;25.60;94.90;;;;;;5103670;28;20035;-55
2021/05/09 08:35:17;;;;;;;3.55;1.05;;;25.70;94.90;;;;;;5103934;28;20042;-56
2021/05/09 08:37:44;;;;;;;6.60;1.10;;;25.60;94.90;;;;;;5103752;28;20077;-52
2021/05/09 08:40:14;;;;;;;8.90;1.23;;;25.60;94.90;;;;;;5103618;28;20019;-54
2021/05/09 08:42:42;;;;;;;7.40;1.40;;;25.60;94.90;;;;;;5103955;28;20020;-58
2021/05/09 08:45:10;;;;;;;5.47;1.10;;;25.60;94.90;;;;;;5104292;28;20031;-51
2021/05/09 08:47:40;;;;;;;5.78;0.90;;;25.60;94.80;;;;;;5103971;28;20032;-53
2021/05/09 08:50:08;;;;;;;5.38;0.90;;;25.60;94.90;;;;;;5104217;28;20019;-57
2021/05/09 08:52:36;;;;;;;7.53;0.90;;;25.60;94.90;;;;;;5104506;28;20020;-51
2021/05/09 08:55:09;;;;;;;7.72;1.25;;;25.60;94.90;;;;;;5088768;28;20257;-60
2021/05/09 08:57:36;;;;;;;7.93;0.95;;;25.60;94.90;;;;;;5107743;28;20024;-53
2021/05/09 09:00:06;;;;;;;6.90;0.70;;;25.60;94.90;;;;;;5107280;28;20012;-51
2021/05/09 09:02:33;;;;;;;6.85;1.13;;;25.60;94.90;;;;;;5107264;28;20019;-51
2021/05/09 09:05:00;;;;;;;6.78;0.70;;;25.60;94.80;;;;;;5107619;28;20020;-54
2021/05/09 09:07:47;;;;;;;5.72;0.70;;;25.60;94.90;;;;;;5106995;28;20238;-62
2021/05/09 09:10:32;;;;;;;5.20;0.80;;;25.60;94.90;;;;;;5106874;28;20115;-59
2021/05/09 09:13:03;;;;;;;6.03;0.82;;;25.60;94.80;;;;;;5106986;28;20030;-52
2021/05/09 09:15:48;;;;;;;12.52;1.40;;;25.60;94.80;;;;;;5107074;28;20189;-49
2021/05/09 09:18:28;;;;;;;6.85;0.93;;;25.60;94.80;;;;;;5107430;28;20020;-53
2021/05/09 09:20:55;;;;;;;5.18;0.88;;;25.60;94.80;;;;;;5106890;28;20031;-53
2021/05/09 09:23:22;;;;;;;7.05;0.57;;;25.60;94.80;;;;;;5107282;28;20016;-59
2021/05/09 09:25:49;;;;;;;5.97;1.20;;;25.60;94.80;;;;;;5107139;28;20024;-61
2021/05/09 09:28:18;;;;;;;6.38;0.90;;;25.60;94.80;;;;;;5107356;28;20027;-59
2021/05/09 09:30:53;;;;;;;6.80;0.73;;;25.60;94.80;;;;;;5107350;28;20181;-61
2021/05/09 09:33:21;;;;;;;3.95;0.60;;;25.50;94.70;;;;;;5107106;28;20024;-62
2021/05/09 09:35:51;;;;;;;5.85;0.82;;;25.60;94.70;;;;;;5107168;28;20024;-51
2021/05/09 09:38:29;;;;;;;7.25;0.80;;;25.60;94.90;;;;;;5106909;28;20016;-51
2021/05/09 09:41:14;;;;;;;3.60;0.70;;;25.50;94.70;;;;;;5106490;28;20012;-52
2021/05/09 09:43:45;;;;;;;3.78;0.70;;;25.50;94.70;;;;;;5106785;28;20023;-52
2021/05/09 09:46:35;;;;;;;6.75;0.80;;;25.50;94.70;;;;;;5106110;28;20047;-51
2021/05/09 09:49:04;;;;;;;5.95;0.65;;;25.50;94.70;;;;;;5106923;28;20020;-55
2021/05/09 09:51:52;;;;;;;3.45;0.60;;;25.60;94.70;;;;;;5106284;28;20028;-51
2021/05/09 09:54:48;;;;;;;2.30;0.82;;;25.50;94.70;;;;;;5107130;28;20028;-51
2021/05/09 09:57:21;;;;;;;5.80;0.85;;;25.50;94.70;;;;;;5106255;28;20277;-58
2021/05/09 10:00:07;;;;;;;4.75;0.80;;;25.50;94.70;;;;;;5106273;28;20024;-59
2021/05/09 10:02:34;;;;;;;6.53;1.05;;;25.50;94.70;;;;;;5105120;28;20030;-52
2021/05/09 10:05:01;;;;;;;7.20;1.80;;;25.50;94.80;;;;;;5105560;28;20028;-56
2021/05/09 10:07:32;;;;;;;47.30;37.40;;;25.50;94.80;;;;;;5104942;28;20063;-47
2021/05/09 10:10:01;;;;;;;12.88;8.50;;;25.50;94.70;;;;;;5105272;28;20051;-48
2021/05/09 10:12:28;;;;;;;8.75;5.28;;;25.50;94.70;;;;;;5104687;28;20076;-46
2021/05/09 10:14:54;;;;;;;12.77;3.50;;;25.50;94.60;;;;;;5104273;28;20023;-53
2021/05/09 10:17:23;;;;;;;6.32;2.53;;;25.50;94.60;;;;;;5105256;28;20335;-52
2021/05/09 10:19:51;;;;;;;9.02;2.90;;;25.50;94.60;;;;;;5105389;28;20062;-56
2021/05/09 10:22:28;;;;;;;5.65;1.85;;;25.50;94.60;;;;;;5105228;28;20192;-51
2021/05/09 10:24:55;;;;;;;5.90;2.03;;;25.50;94.60;;;;;;5105800;28;20028;-55
2021/05/09 10:27:39;;;;;;;10.65;2.03;;;25.50;94.60;;;;;;5105683;28;20023;-54
2021/05/09 10:30:13;;;;;;;7.72;1.40;;;25.50;94.60;;;;;;5105019;28;20028;-53
2021/05/09 10:32:40;;;;;;;4.50;1.35;;;25.50;94.60;;;;;;5105103;28;20118;-53
2021/05/09 10:35:08;;;;;;;7.03;1.40;;;25.40;94.60;;;;;;5104995;28;20012;-54
2021/05/09 10:37:42;;;;;;;3.88;1.30;;;25.40;94.60;;;;;;5104981;28;20030;-50
2021/05/09 10:40:22;;;;;;;5.03;1.48;;;25.40;94.60;;;;;;5104878;28;20095;-47
2021/05/09 10:43:05;;;;;;;5.90;1.50;;;25.40;94.60;;;;;;5104665;28;20023;-54
2021/05/09 10:45:35;;;;;;;6.30;1.30;;;25.40;94.60;;;;;;5105018;28;20212;-48
2021/05/09 10:51:14;;;;;;;5.07;1.20;;;25.40;94.60;;;;;;5105120;28;20016;-54
2021/05/09 10:53:42;;;;;;;5.65;1.05;;;25.40;94.70;;;;;;5105486;28;20248;-51
2021/05/09 10:56:14;;;;;;;12.48;1.45;;;25.40;94.70;;;;;;5104692;28;20027;-56
2021/05/09 10:58:47;;;;;;;;;;;25.40;94.70;;;;;;5105301;28;20024;-55
2021/05/09 11:01:22;;;;;;;9.00;1.10;;;25.40;94.80;;;;;;5104510;28;19914;-48
2021/05/09 11:04:08;;;;;;;7.85;1.13;;;25.40;95.10;;;;;;5105275;28;20024;-53
2021/05/09 11:06:40;;;;;;;9.23;2.40;;;25.40;94.90;;;;;;5104376;28;20016;-52
2021/05/09 11:09:13;;;;;;;10.30;1.75;;;25.40;94.90;;;;;;5104862;28;20331;-53
2021/05/09 11:11:39;;;;;;;9.02;1.52;;;25.40;94.90;;;;;;5104742;28;20103;-55
2021/05/09 11:14:08;;;;;;;7.13;1.35;;;25.40;94.90;;;;;;5105268;28;20061;-51
2021/05/09 11:16:39;;;;;;;8.80;1.42;;;25.40;94.90;;;;;;5103917;28;20024;-53
2021/05/09 11:19:10;;;;;;;7.40;1.35;;;25.50;95.00;;;;;;5105083;28;20020;-54
2021/05/09 11:21:42;;;;;;;6.80;1.20;;;25.50;95.00;;;;;;5104665;28;20145;-53
2021/05/09 11:24:11;;;;;;;3.55;0.98;;;25.50;95.00;;;;;;5105060;28;20075;-55
2021/05/09 11:26:45;;;;;;;7.03;0.80;;;25.50;95.00;;;;;;5104813;28;20090;-52
2021/05/09 11:29:18;;;;;;;8.27;1.30;;;25.50;95.00;;;;;;5104408;28;20083;-53
2021/05/09 11:32:04;;;;;;;5.07;1.30;;;25.50;94.90;;;;;;5104679;28;20052;-53
2021/05/09 11:34:32;;;;;;;8.45;1.13;;;25.50;94.90;;;;;;5104502;28;20024;-51
2021/05/09 11:36:59;;;;;;;7.00;0.95;;;25.50;94.90;;;;;;5104512;28;20032;-55
2021/05/09 11:39:34;;;;;;;6.82;1.13;;;25.50;94.90;;;;;;5105186;28;20286;-51
2021/05/09 11:42:06;;;;;;;8.07;1.35;;;25.50;94.90;;;;;;5104576;28;20343;-51
2021/05/09 11:44:51;;;;;;;5.13;1.50;;;25.50;94.90;;;;;;5104949;28;20137;-54
2021/05/09 11:47:25;;;;;;;6.55;1.20;;;25.50;94.80;;;;;;5104215;28;20031;-56
2021/05/09 11:50:03;;;;;;;6.43;1.27;;;25.50;94.80;;;;;;5104644;28;20024;-51
2021/05/09 11:52:32;;;;;;;8.18;0.93;;;25.50;94.80;;;;;;5104053;28;20024;-55
2021/05/09 11:55:02;;;;;;;4.53;1.23;;;25.50;94.80;;;;;;5104077;28;20416;-56
2021/05/09 11:57:30;;;;;;;4.82;1.00;;;25.50;94.80;;;;;;5103987;28;20035;-51
2021/05/09 12:00:08;;;;;;;8.50;1.20;;;25.50;94.80;;;;;;5104295;28;20061;-51
2021/05/09 12:02:37;;;;;;;9.77;1.23;;;25.50;94.80;;;;;;5104469;28;20204;-52
2021/05/09 12:05:14;;;;;;;3.55;0.90;;;25.50;94.80;;;;;;5104244;28;20182;-58
2021/05/09 12:08:00;;;;;;;4.63;1.00;;;25.50;94.90;;;;;;5104307;28;20040;-51
2021/05/09 12:10:30;;;;;;;4.78;0.73;;;25.50;94.90;;;;;;5086417;28;20024;-51
2021/05/09 12:13:03;;;;;;;10.07;1.52;;;25.50;94.90;;;;;;5104239;28;20343;-50
2021/05/09 12:15:38;;;;;;;6.38;0.98;;;25.50;94.90;;;;;;5103889;28;20082;-62
2021/05/09 12:18:06;;;;;;;7.93;0.68;;;25.50;94.90;;;;;;5104125;28;20084;-56
2021/05/09 12:20:36;;;;;;;5.75;0.90;;;25.60;94.90;;;;;;5104330;28;20080;-56
2021/05/09 12:23:26;;;;;;;8.48;1.25;;;25.60;94.90;;;;;;5103847;28;20221;-54
2021/05/09 12:25:53;;;;;;;6.53;0.73;;;25.60;94.90;;;;;;5104311;28;20066;-54
2021/05/09 12:28:32;;;;;;;5.35;0.90;;;25.60;94.80;;;;;;5104019;28;20012;-53
2021/05/09 12:31:14;;;;;;;4.25;1.52;;;25.60;94.70;;;;;;5107539;28;20181;-57
2021/05/09 12:33:41;;;;;;;4.30;1.40;;;25.60;94.70;;;;;;5107856;28;20031;-52
2021/05/09 12:36:25;;;;;;;8.35;1.33;;;25.60;94.70;;;;;;5107458;28;20308;-59
2021/05/09 12:38:52;;;;;;;3.50;1.00;;;25.60;94.60;;;;;;5107595;28;20049;-49
2021/05/09 12:41:18;;;;;;;6.70;1.40;;;25.70;94.70;;;;;;5107286;28;20028;-54
2021/05/09 12:43:49;;;;;;;6.03;1.20;;;25.60;94.60;;;;;;5107964;28;20016;-60
2021/05/09 12:46:48;;;;;;;2.42;1.52;;;25.70;94.60;;;;;;5107741;28;20107;-50
2021/05/09 12:49:27;;;;;;;5.97;1.33;;;25.70;94.60;;;;;;5107873;28;20035;-53
2021/05/09 12:52:04;;;;;;;4.13;1.05;;;25.70;94.50;;;;;;5107447;28;20055;-48
2021/05/09 12:54:39;;;;;;;3.05;0.95;;;25.80;94.40;;;;;;5107547;28;20114;-52
2021/05/09 12:57:23;;;;;;;4.30;0.60;;;25.80;94.30;;;;;;5107250;28;20045;-52